Time;durP1;ratioP1;P1;durP2;ratioP2;P2;SDS_P1;SDS_P2;PMS_P1;PMS_P2;Temp;Humidity;BMP_temperature;BMP_pressure;BME280_temperature;BME280_humidity;BME280_pressure;Samples;Min_cycle;Max_cycle;Signal;HPM_P1;HPM_P2
2023/06/03 00:01:13;;;;;;;;;17.25;17.25;;;;;15.16;58.99;100874.94;5053620;28;62070;-65
2023/06/03 00:03:39;;;;;;;;;25.50;25.50;;;;;15.11;59.15;100861.91;5054354;28;45613;-72
2023/06/03 00:06:05;;;;;;;;;34.00;33.00;;;;;15.11;59.28;100866.38;5054290;28;45333;-68
2023/06/03 00:08:31;;;;;;;;;16.50;16.50;;;;;15.10;59.83;100867.31;5053126;28;45631;-67
2023/06/03 00:10:56;;;;;;;;;16.50;16.50;;;;;15.03;59.57;100862.34;5052909;28;47487;-71
2023/06/03 00:13:22;;;;;;;;;16.50;16.50;;;;;14.99;59.99;100860.81;5053555;28;45429;-68
2023/06/03 00:15:47;;;;;;;;;20.50;20.50;;;;;14.92;60.35;100864.75;5054104;28;45300;-65
2023/06/03 00:18:15;;;;;;;;;16.25;16.25;;;;;14.81;60.97;100865.31;5054586;28;45314;-70
2023/06/03 00:20:40;;;;;;;;;19.00;18.50;;;;;14.84;61.23;100866.91;5054305;28;45289;-70
2023/06/03 00:23:06;;;;;;;;;17.25;16.50;;;;;14.83;61.96;100867.84;5054248;28;45266;-69
2023/06/03 00:25:32;;;;;;;;;18.00;18.00;;;;;14.79;62.33;100874.25;5069354;28;45235;-68
2023/06/03 00:27:57;;;;;;;;;20.25;20.00;;;;;14.69;62.45;100863.28;5052931;28;45251;-67
2023/06/03 00:30:23;;;;;;;;;18.50;18.50;;;;;14.60;63.45;100851.38;5054139;28;45654;-67
2023/06/03 00:32:48;;;;;;;;;16.00;16.00;;;;;14.64;63.44;100857.38;5052909;28;45477;-68
2023/06/03 00:35:14;;;;;;;;;16.25;16.25;;;;;14.70;63.30;100865.03;5054096;28;45441;-69
2023/06/03 00:37:39;;;;;;;;;17.25;16.75;;;;;14.61;63.74;100861.88;5053195;28;45330;-68
2023/06/03 00:40:06;;;;;;;;;19.25;19.25;;;;;14.50;63.67;100858.97;5052455;28;47050;-65
2023/06/03 00:42:31;;;;;;;;;20.75;19.25;;;;;14.50;64.40;100861.59;5054096;28;45352;-66
2023/06/03 00:44:57;;;;;;;;;21.50;20.50;;;;;14.45;64.96;100861.81;5054132;28;45385;-67
2023/06/03 00:47:22;;;;;;;;;16.25;16.25;;;;;14.47;65.18;100856.47;5054244;28;45628;-67
2023/06/03 00:49:48;;;;;;;;;17.75;17.75;;;;;14.44;65.00;100849.53;5054251;28;45372;-67
2023/06/03 00:52:15;;;;;;;;;15.75;15.75;;;;;14.45;65.13;100845.94;5054032;28;45296;-68
2023/06/03 00:54:40;;;;;;;;;19.00;19.00;;;;;14.41;65.63;100847.03;5054116;28;45390;-69
2023/06/03 00:57:06;;;;;;;;;21.25;21.25;;;;;14.43;65.79;100845.16;5054040;28;45307;-67
2023/06/03 00:59:32;;;;;;;;;20.00;20.00;;;;;14.39;65.77;100845.44;5054978;28;45305;-67
2023/06/03 01:01:58;;;;;;;;;19.25;19.25;;;;;14.31;66.12;100832.59;5057229;28;45286;-67
2023/06/03 01:04:29;;;;;;;;;14.75;14.50;;;;;14.26;66.52;100840.75;5057152;28;45350;-67
2023/06/03 01:07:14;;;;;;;;;17.50;16.75;;;;;14.27;66.97;100847.75;5057360;28;45490;-65
2023/06/03 01:09:42;;;;;;;;;18.50;17.50;;;;;14.27;67.47;100836.31;5056719;28;47030;-65
2023/06/03 01:12:29;;;;;;;;;17.25;17.25;;;;;14.19;67.43;100827.94;5056815;28;45251;-68
2023/06/03 01:15:00;;;;;;;;;20.25;18.75;;;;;14.17;68.79;100826.22;5057031;28;45322;-68
2023/06/03 01:17:30;;;;;;;;;24.25;23.25;;;;;14.13;68.82;100824.66;5057466;28;45332;-70
2023/06/03 01:19:57;;;;;;;;;21.25;19.75;;;;;14.12;69.09;100833.53;5056747;28;46725;-74
2023/06/03 01:22:26;;;;;;;;;20.75;20.75;;;;;14.07;69.33;100819.69;5052746;28;45752;-67
2023/06/03 01:25:15;;;;;;;;;18.75;18.75;;;;;14.07;69.80;100830.28;5048497;28;45442;-75
2023/06/03 01:27:42;;;;;;;;;24.50;22.00;;;;;14.03;70.22;100826.06;5056703;28;45328;-66
2023/06/03 01:30:10;;;;;;;;;23.00;21.50;;;;;13.99;71.30;100827.16;5055651;28;46551;-72
2023/06/03 01:32:38;;;;;;;;;21.75;21.50;;;;;13.96;70.85;100825.50;5056543;28;45243;-69
2023/06/03 01:35:07;;;;;;;;;22.00;22.00;;;;;13.90;72.46;100831.09;5057145;28;45453;-75
2023/06/03 01:37:33;;;;;;;;;23.75;23.50;;;;;13.83;71.71;100822.66;5055128;28;45547;-75
2023/06/03 01:40:00;;;;;;;;;21.50;21.50;;;;;13.83;71.81;100825.28;5057029;28;45432;-69
2023/06/03 01:42:26;;;;;;;;;20.50;20.00;;;;;13.78;72.45;100813.22;5055907;28;45228;-73
2023/06/03 01:44:52;;;;;;;;;16.75;16.75;;;;;13.76;72.36;100820.38;5057394;28;45339;-74
2023/06/03 01:47:18;;;;;;;;;22.00;21.25;;;;;13.73;72.72;100816.06;5056454;28;46903;-74
2023/06/03 01:49:44;;;;;;;;;18.25;18.25;;;;;13.72;72.32;100811.72;5056999;28;46342;-76
2023/06/03 01:52:10;;;;;;;;;21.25;21.25;;;;;13.73;72.37;100816.94;5053934;28;45556;-68
2023/06/03 01:54:36;;;;;;;;;26.75;26.75;;;;;13.75;72.81;100821.31;5063515;28;45453;-71
2023/06/03 01:57:02;;;;;;;;;23.75;22.25;;;;;13.75;73.01;100823.94;5062116;28;45436;-71
2023/06/03 01:59:27;;;;;;;;;22.50;22.50;;;;;13.72;73.23;100820.53;5045244;28;46248;-78
2023/06/03 02:01:56;;;;;;;;;24.00;23.25;;;;;13.71;73.26;100815.28;5048297;28;46075;-78
2023/06/03 02:04:23;;;;;;;;;21.50;21.50;;;;;13.69;73.53;100814.53;5051479;28;45380;-77
2023/06/03 02:06:53;;;;;;;;;20.50;20.50;;;;;13.69;73.62;100820.69;5050729;28;45551;-77
2023/06/03 02:09:24;;;;;;;;;21.75;21.00;;;;;13.69;73.41;100825.97;5067219;28;46820;-74
2023/06/03 02:11:52;;;;;;;;;21.75;21.75;;;;;13.70;73.81;100824.16;5082338;28;45507;-71
2023/06/03 02:14:18;;;;;;;;;19.75;19.75;;;;;13.65;73.83;100810.31;5058593;28;45373;-75
2023/06/03 02:16:43;;;;;;;;;24.50;24.50;;;;;13.68;74.22;100818.09;5052753;28;45579;-73
2023/06/03 02:19:16;;;;;;;;;19.25;19.25;;;;;13.65;74.10;100813.84;5036377;28;45594;-72
2023/06/03 02:21:42;;;;;;;;;23.00;22.25;;;;;13.57;74.00;100811.56;5039449;28;45454;-73
2023/06/03 02:24:09;;;;;;;;;30.75;30.75;;;;;13.63;74.08;100814.81;5036601;28;45416;-76
2023/06/03 02:26:35;;;;;;;;;20.75;20.75;;;;;13.57;74.17;100803.63;5037657;28;45474;-73
2023/06/03 02:29:01;;;;;;;;;25.50;25.50;;;;;13.57;74.86;100811.56;5036434;28;47489;-72
2023/06/03 02:31:27;;;;;;;;;26.75;26.75;;;;;13.55;75.15;100812.56;5039659;28;45281;-74
2023/06/03 02:33:52;;;;;;;;;24.75;24.75;;;;;13.53;75.14;100803.88;5036879;28;45366;-73
2023/06/03 02:36:18;;;;;;;;;21.00;21.00;;;;;13.55;75.54;100813.41;5038157;28;45251;-76
2023/06/03 02:38:44;;;;;;;;;24.00;24.00;;;;;13.50;76.17;100809.31;5046887;28;46785;-74
2023/06/03 02:41:09;;;;;;;;;25.25;24.25;;;;;13.49;75.25;100808.44;5038256;28;45443;-74
2023/06/03 02:43:35;;;;;;;;;24.75;24.75;;;;;13.48;76.11;100817.28;5055840;28;45361;-71
2023/06/03 02:46:01;;;;;;;;;24.50;24.50;;;;;13.47;76.05;100814.75;5055450;28;45488;-72
2023/06/03 02:48:26;;;;;;;;;24.00;24.00;;;;;13.38;77.08;100806.31;5055458;28;46379;-75
2023/06/03 02:50:51;;;;;;;;;25.75;25.75;;;;;13.36;76.70;100812.56;5055138;28;45421;-73
2023/06/03 02:53:17;;;;;;;;;23.00;22.50;;;;;13.37;76.97;100820.44;5055805;28;45391;-68
2023/06/03 02:55:43;;;;;;;;;25.00;25.00;;;;;13.37;77.21;100812.50;5056097;28;45510;-77
2023/06/03 02:58:08;;;;;;;;;20.75;20.75;;;;;13.32;78.09;100814.53;5037345;28;45448;-76
2023/06/03 03:00:34;;;;;;;;;23.25;23.25;;;;;13.27;77.59;100813.88;5035719;28;45202;-74
2023/06/03 03:03:01;;;;;;;;;24.75;24.75;;;;;13.27;78.43;100813.88;5036229;28;45331;-73
2023/06/03 03:05:26;;;;;;;;;24.50;24.50;;;;;13.24;78.30;100812.22;5036825;28;45484;-67
2023/06/03 03:07:51;;;;;;;;;25.50;25.50;;;;;13.23;78.42;100813.16;5035282;28;47425;-74
2023/06/03 03:10:17;;;;;;;;;25.75;25.50;;;;;13.19;78.91;100803.66;5054588;28;45421;-76
2023/06/03 03:12:42;;;;;;;;;27.00;27.00;;;;;13.20;78.79;100802.75;5038355;28;45209;-75
2023/06/03 03:15:08;;;;;;;;;25.00;25.00;;;;;13.15;80.12;100808.22;5034492;28;45279;-74
2023/06/03 03:17:33;;;;;;;;;24.00;23.75;;;;;13.14;79.59;100814.44;5051323;28;45430;-74
2023/06/03 03:19:59;;;;;;;;;27.75;27.00;;;;;13.05;79.82;100793.75;5037080;28;45453;-75
2023/06/03 03:22:27;;;;;;;;;23.00;21.50;;;;;13.09;80.28;100800.59;5048413;28;45475;-75
2023/06/03 03:24:55;;;;;;;;;24.00;23.00;;;;;13.03;80.76;100794.78;5056599;28;45421;-74
2023/06/03 03:27:20;;;;;;;;;24.00;24.00;;;;;13.01;80.78;100802.75;5070816;27;47886;-76
2023/06/03 03:29:46;;;;;;;;;27.75;26.00;;;;;12.95;81.04;100798.63;5039169;28;45370;-75
2023/06/03 03:32:12;;;;;;;;;27.25;27.25;;;;;12.94;80.95;100804.84;5046889;28;45287;-72
2023/06/03 03:34:38;;;;;;;;;23.25;23.25;;;;;12.96;80.90;100805.63;5055731;28;45613;-77
2023/06/03 03:37:04;;;;;;;;;26.25;26.25;;;;;12.92;81.21;100801.41;5054706;28;45369;-78
2023/06/03 03:39:30;;;;;;;;;30.50;28.50;;;;;12.88;81.19;100799.84;5044584;28;45444;-75
2023/06/03 03:41:56;;;;;;;;;24.00;24.00;;;;;12.82;81.23;100793.03;5037097;28;45881;-73
2023/06/03 03:44:22;;;;;;;;;29.50;29.00;;;;;12.89;81.67;100809.47;5036388;28;45307;-75
2023/06/03 03:46:56;;;;;;;;;23.00;23.00;;;;;12.91;80.98;100820.81;5035607;28;46499;-70
2023/06/03 03:49:28;;;;;;;;;25.75;24.50;;;;;12.84;81.40;100803.56;5045281;28;45477;-71
2023/06/03 03:51:54;;;;;;;;;29.00;29.00;;;;;12.89;81.81;100820.03;5055715;28;45339;-75
2023/06/03 03:54:23;;;;;;;;;27.00;27.00;;;;;12.84;81.65;100814.94;5067660;28;45444;-73
2023/06/03 03:56:55;;;;;;;;;23.25;23.25;;;;;12.86;81.65;100815.75;5049548;28;46418;-70
2023/06/03 03:59:21;;;;;;;;;26.50;25.25;;;;;12.84;81.70;100822.88;5048773;28;45303;-70
2023/06/03 04:01:46;;;;;;;;;26.25;26.25;;;;;12.84;82.47;100824.66;5037725;28;45385;-76
2023/06/03 04:04:38;;;;;;;;;21.25;21.25;;;;;12.73;82.20;100804.03;5035426;28;45417;-71
2023/06/03 04:07:03;;;;;;;;;24.00;23.75;;;;;12.80;82.49;100823.09;5037211;28;45711;-77
2023/06/03 04:09:29;;;;;;;;;24.00;23.75;;;;;12.82;82.54;100824.72;5034469;28;45391;-72
2023/06/03 04:11:54;;;;;;;;;26.25;26.00;;;;;12.71;83.05;100805.88;5050977;28;45492;-74
2023/06/03 04:14:35;;;;;;;;;26.75;26.75;;;;;12.78;82.28;100817.88;5034791;28;45497;-72
2023/06/03 04:17:02;;;;;;;;;25.00;25.00;;;;;12.81;83.00;100816.88;5032959;28;48103;-77
2023/06/03 04:19:47;;;;;;;;;25.50;25.50;;;;;12.77;83.58;100816.16;5033372;28;45415;-71
2023/06/03 04:22:17;;;;;;;;;27.50;26.50;;;;;12.75;84.12;100811.91;5034654;28;45467;-78
2023/06/03 04:24:43;;;;;;;;;24.50;24.00;;;;;12.67;83.87;100802.50;5038500;28;45552;-76
2023/06/03 04:27:08;;;;;;;;;26.75;26.75;;;;;12.68;83.83;100814.78;5054371;28;45777;-73
2023/06/03 04:29:34;;;;;;;;;27.25;26.75;;;;;12.73;83.63;100819.03;5049383;28;45495;-67
2023/06/03 04:31:59;;;;;;;;;27.25;27.00;;;;;12.70;84.46;100815.56;5040146;28;45379;-80
2023/06/03 04:34:27;;;;;;;;;24.00;24.00;;;;;12.70;84.40;100810.28;5036616;28;45159;-75
2023/06/03 04:36:52;;;;;;;;;27.00;27.00;;;;;12.73;83.85;100819.03;5058125;28;45415;-73
2023/06/03 04:39:17;;;;;;;;;23.50;23.50;;;;;12.74;83.13;100818.94;5057579;28;45244;-77
2023/06/03 04:41:43;;;;;;;;;28.50;28.50;;;;;12.76;83.53;100832.09;5055905;28;49498;-79
2023/06/03 04:44:08;;;;;;;;;27.00;27.00;;;;;12.77;83.22;100828.50;5058359;28;45280;-78
2023/06/03 04:46:35;;;;;;;;;26.00;26.00;;;;;12.80;82.98;100829.22;5053657;28;45967;-77
2023/06/03 04:49:01;;;;;;;;;28.50;27.25;;;;;12.81;83.17;100833.56;5051662;28;45398;-78
2023/06/03 04:51:30;;;;;;;;;26.75;26.50;;;;;12.85;83.13;100834.31;5037720;28;45385;-76
2023/06/03 04:53:56;;;;;;;;;24.25;24.25;;;;;12.88;83.43;100842.09;5053916;28;45377;-69
2023/06/03 04:56:24;;;;;;;;;27.75;27.75;;;;;12.93;82.83;100845.38;5056219;28;47200;-73
2023/06/03 04:58:55;;;;;;;;;21.50;21.25;;;;;13.02;82.36;100838.78;5055291;28;45302;-73
2023/06/03 05:01:24;;;;;;;;;24.50;24.50;;;;;13.17;82.11;100855.72;5037506;28;45788;-73
2023/06/03 05:03:54;;;;;;;;;28.00;27.75;;;;;13.26;81.97;100855.28;5037410;28;45572;-73
2023/06/03 05:06:20;;;;;;;;;20.50;20.50;;;;;13.35;81.41;100855.78;5072169;27;47543;-77
2023/06/03 05:08:47;;;;;;;;;25.00;24.50;;;;;13.43;80.86;100851.00;5056621;28;45891;-76
2023/06/03 05:11:15;;;;;;;;;26.00;25.50;;;;;13.51;80.16;100848.84;5056746;28;45418;-78
2023/06/03 05:13:40;;;;;;;;;19.25;19.25;;;;;13.68;79.48;100858.63;5073392;27;45571;-75
2023/06/03 05:16:06;;;;;;;;;25.25;25.25;;;;;13.80;78.46;100867.75;5041929;28;46976;-75
2023/06/03 05:18:31;;;;;;;;;25.50;25.25;;;;;13.91;77.70;100859.25;5038129;28;45382;-74
2023/06/03 05:20:56;;;;;;;;;20.00;20.00;;;;;14.00;77.28;100856.16;5050946;28;45306;-75
2023/06/03 05:23:22;;;;;;;;;22.75;22.75;;;;;14.14;77.04;100858.13;5038232;28;45332;-77
2023/06/03 05:25:47;;;;;;;;;24.50;24.50;;;;;14.23;76.52;100863.88;5051337;28;57722;-69
2023/06/03 05:28:12;;;;;;;;;25.50;24.25;;;;;14.27;76.07;100846.91;5048455;28;50456;-75
2023/06/03 05:30:38;;;;;;;;;20.00;20.00;;;;;14.38;75.24;100849.00;5035430;28;59357;-69
2023/06/03 05:33:03;;;;;;;;;23.50;23.50;;;;;14.52;75.07;100857.09;5037819;28;45521;-76
2023/06/03 05:35:28;;;;;;;;;18.75;18.75;;;;;14.58;74.41;100848.81;5037488;28;46197;-76
2023/06/03 05:37:54;;;;;;;;;21.25;21.25;;;;;14.69;73.86;100853.53;5038131;28;45181;-76
2023/06/03 05:40:19;;;;;;;;;23.25;22.75;;;;;14.74;73.27;100851.50;5048189;28;45158;-67
2023/06/03 05:42:47;;;;;;;;;24.50;22.50;;;;;14.82;72.95;100855.53;5053228;28;45531;-70
2023/06/03 05:45:13;;;;;;;;;20.00;20.00;;;;;14.88;72.51;100856.09;5054028;28;46337;-66
2023/06/03 05:47:38;;;;;;;;;22.25;22.25;;;;;14.90;71.85;100846.25;5041430;28;45289;-75
2023/06/03 05:50:04;;;;;;;;;22.75;22.50;;;;;14.90;72.02;100845.44;5056306;28;45464;-74
2023/06/03 05:52:30;;;;;;;;;20.00;20.00;;;;;14.90;71.81;100838.31;5057133;28;45313;-65
2023/06/03 05:54:55;;;;;;;;;24.00;24.00;;;;;14.90;71.78;100843.63;5071356;28;46985;-74
2023/06/03 05:57:20;;;;;;;;;19.50;19.50;;;;;14.75;71.57;100831.22;5055322;28;45700;-76
2023/06/03 05:59:46;;;;;;;;;22.75;22.75;;;;;14.86;71.69;100851.81;5038845;28;45380;-78
2023/06/03 06:02:11;;;;;;;;;23.00;23.00;;;;;14.85;71.93;100858.91;5036785;28;45319;-78
2023/06/03 06:04:36;;;;;;;;;25.75;25.25;;;;;14.83;71.55;100865.19;5042112;28;45552;-75
2023/06/03 06:07:02;;;;;;;;;25.00;23.25;;;;;14.82;71.76;100871.44;5054812;28;45410;-75
2023/06/03 06:09:27;;;;;;;;;22.50;22.50;;;;;14.83;71.70;100875.78;5042085;28;45413;-74
2023/06/03 06:11:53;;;;;;;;;19.25;19.25;;;;;14.81;71.68;100875.03;5035264;28;45432;-73
2023/06/03 06:14:18;;;;;;;;;22.00;22.00;;;;;14.75;71.95;100869.13;5050442;28;47978;-77
2023/06/03 06:16:43;;;;;;;;;21.00;21.00;;;;;14.73;71.75;100871.00;5036636;28;45345;-72
2023/06/03 06:19:09;;;;;;;;;21.75;21.75;;;;;14.69;71.88;100863.28;5067944;28;47085;-72
2023/06/03 06:21:36;;;;;;;;;22.25;22.25;;;;;14.71;71.58;100872.88;5057289;28;45606;-78
2023/06/03 06:24:01;;;;;;;;;23.75;23.75;;;;;14.69;71.84;100876.50;5044428;28;45690;-80
2023/06/03 06:26:27;;;;;;;;;25.50;25.25;;;;;14.70;71.54;100881.75;5056482;28;45474;-77
2023/06/03 06:28:52;;;;;;;;;22.25;22.25;;;;;14.72;71.44;100879.03;5045557;28;45216;-75
2023/06/03 06:31:18;;;;;;;;;27.25;24.00;;;;;14.71;71.23;100877.31;5035763;28;45273;-78
2023/06/03 06:33:47;;;;;;;;;24.25;22.50;;;;;14.78;71.08;100875.19;5044659;28;45504;-78
2023/06/03 06:36:13;;;;;;;;;22.25;22.25;;;;;14.78;71.50;100883.13;5049596;28;45472;-75
2023/06/03 06:38:38;;;;;;;;;22.00;22.00;;;;;14.77;70.72;100876.13;5055442;28;45364;-69
2023/06/03 06:41:04;;;;;;;;;23.00;23.00;;;;;14.73;71.33;100863.03;5056408;28;45580;-75
2023/06/03 06:43:31;;;;;;;;;22.25;22.25;;;;;14.80;71.36;100881.25;5042945;28;45391;-72
2023/06/03 06:45:57;;;;;;;;;19.00;19.00;;;;;14.75;71.44;100871.75;5035881;28;45249;-76
2023/06/03 06:48:22;;;;;;;;;22.25;22.25;;;;;14.81;71.07;100875.03;5053845;28;45223;-69
2023/06/03 06:50:51;;;;;;;;;20.75;20.75;;;;;14.88;70.84;100884.38;5055946;28;45316;-71
2023/06/03 06:53:18;;;;;;;;;22.00;22.00;;;;;14.95;71.10;100876.94;5055165;28;46701;-71
2023/06/03 06:55:52;;;;;;;;;18.25;18.25;;;;;15.04;70.24;100884.38;5054273;28;45279;-73
2023/06/03 06:58:18;;;;;;;;;20.50;20.50;;;;;15.08;70.11;100885.94;5051302;28;45243;-68
2023/06/03 07:00:44;;;;;;;;;21.75;21.75;;;;;15.07;70.19;100878.09;5048241;28;45588;-75
2023/06/03 07:03:13;;;;;;;;;18.50;18.25;;;;;15.22;69.85;100877.25;5054065;28;45698;-77
2023/06/03 07:05:38;;;;;;;;;23.50;23.25;;;;;15.27;69.84;100880.50;5056029;28;45761;-73
2023/06/03 07:08:05;;;;;;;;;22.25;20.25;;;;;15.37;69.50;100888.78;5044569;28;45343;-68
2023/06/03 07:10:31;;;;;;;;;16.50;16.50;;;;;15.36;69.22;100871.16;5054834;28;45402;-75
2023/06/03 07:12:56;;;;;;;;;19.50;19.50;;;;;15.45;68.74;100880.41;5051004;28;45474;-72
2023/06/03 07:15:23;;;;;;;;;21.75;21.75;;;;;15.57;68.56;100885.00;5047971;28;45527;-74
2023/06/03 07:17:55;;;;;;;;;24.50;24.50;;;;;15.65;68.25;100884.59;5049029;28;45431;-66
2023/06/03 07:20:29;;;;;;;;;19.50;19.50;;;;;15.72;68.19;100879.78;5053300;28;45397;-67
2023/06/03 07:22:54;;;;;;;;;15.50;15.50;;;;;15.82;67.63;100880.13;5043554;28;47469;-71
2023/06/03 07:25:37;;;;;;;;;19.50;19.50;;;;;15.78;67.49;100871.47;5055300;28;45434;-72
2023/06/03 07:28:04;;;;;;;;;19.50;19.50;;;;;15.94;67.17;100873.28;5048313;28;45432;-73
2023/06/03 07:30:35;;;;;;;;;19.75;19.75;;;;;16.02;66.65;100881.66;5062702;28;45444;-68
2023/06/03 07:33:03;;;;;;;;;19.75;19.75;;;;;16.06;66.40;100875.22;5056544;28;45650;-72
2023/06/03 07:35:28;;;;;;;;;20.75;20.75;;;;;16.10;66.07;100868.78;5042656;28;45480;-75
2023/06/03 07:37:53;;;;;;;;;16.25;14.75;;;;;16.19;66.06;100878.00;5055528;28;45197;-74
2023/06/03 07:40:27;;;;;;;;;18.75;18.75;;;;;16.29;65.84;100878.31;5055195;28;45544;-77
2023/06/03 07:42:52;;;;;;;;;21.25;21.25;;;;;16.39;65.41;100882.13;5054368;28;45358;-80
2023/06/03 07:45:17;;;;;;;;;18.25;18.25;;;;;16.47;65.26;100882.53;5054130;28;45469;-76
2023/06/03 07:47:43;;;;;;;;;19.25;19.25;;;;;16.64;65.12;100888.59;5053998;28;45338;-73
2023/06/03 07:50:26;;;;;;;;;20.00;20.00;;;;;16.76;64.35;100887.00;5037847;28;45583;-70
2023/06/03 07:52:59;;;;;;;;;21.00;20.25;;;;;16.82;63.43;100891.06;5042162;28;46374;-71
2023/06/03 07:55:24;;;;;;;;;16.00;16.00;;;;;16.86;63.36;100888.16;5035788;28;45311;-75
2023/06/03 07:57:49;;;;;;;;;19.50;19.50;;;;;16.92;63.16;100886.91;5037241;28;45275;-68
2023/06/03 08:00:17;;;;;;;;;17.25;17.25;;;;;16.99;62.99;100885.63;5036244;28;45518;-69
2023/06/03 08:02:43;;;;;;;;;16.75;16.75;;;;;17.03;62.52;100875.66;5037338;28;45532;-65
2023/06/03 08:05:08;;;;;;;;;15.50;15.50;;;;;17.13;62.15;100878.59;5034488;28;45273;-77
2023/06/03 08:07:34;;;;;;;;;19.25;19.25;;;;;17.21;61.51;100884.28;5037884;28;45341;-68
2023/06/03 08:09:59;;;;;;;;;17.50;17.50;;;;;17.29;62.21;100887.28;5036900;28;45411;-72
2023/06/03 08:12:34;;;;;;;;;17.25;17.25;;;;;17.40;61.66;100891.06;5048316;28;45411;-71
2023/06/03 08:15:01;;;;;;;;;15.25;15.25;;;;;17.49;61.58;100890.47;5058432;28;45513;-76
2023/06/03 08:17:39;;;;;;;;;15.75;15.75;;;;;17.58;61.22;100876.56;5049837;28;45396;-74
2023/06/03 08:20:09;;;;;;;;;19.25;19.25;;;;;17.72;61.15;100885.47;5038401;28;45258;-75
2023/06/03 08:22:38;;;;;;;;;13.00;13.00;;;;;17.80;60.08;100881.34;5043345;28;45663;-71
2023/06/03 08:25:03;;;;;;;;;17.00;17.00;;;;;17.81;59.59;100882.19;5057805;28;45325;-65
2023/06/03 08:27:31;;;;;;;;;16.25;16.25;;;;;17.87;59.70;100881.78;5053343;28;45367;-65
2023/06/03 08:29:57;;;;;;;;;18.50;18.50;;;;;17.83;58.96;100866.97;5037579;28;45345;-71
2023/06/03 08:32:22;;;;;;;;;16.25;16.25;;;;;17.98;59.00;100886.41;5045647;28;46755;-66
2023/06/03 08:34:48;;;;;;;;;13.50;13.50;;;;;17.91;59.05;100861.16;5053726;28;45266;-77
2023/06/03 08:37:13;;;;;;;;;20.25;17.25;;;;;18.09;59.25;100883.06;5040367;28;45234;-72
2023/06/03 08:39:39;;;;;;;;;16.25;16.25;;;;;18.13;59.00;100865.94;5056832;28;45639;-73
2023/06/03 08:42:10;;;;;;;;;15.50;15.50;;;;;18.24;58.87;100876.72;5054493;28;45566;-71
2023/06/03 08:44:52;;;;;;;;;14.25;14.00;;;;;18.24;58.80;100858.06;5055496;28;45384;-68
2023/06/03 08:47:30;;;;;;;;;15.25;15.25;;;;;18.39;58.03;100877.44;5049111;28;45432;-66
2023/06/03 08:50:03;;;;;;;;;28.50;28.25;;;;;18.49;57.37;100880.34;5058197;28;45173;-71
2023/06/03 08:52:33;;;;;;;;;13.75;13.75;;;;;18.57;57.36;100873.63;5048021;28;46626;-75
2023/06/03 08:55:00;;;;;;;;;15.00;15.00;;;;;18.61;57.11;100862.66;5054315;28;45310;-72
2023/06/03 08:57:31;;;;;;;;;15.00;15.00;;;;;18.67;57.24;100867.56;5039418;28;45387;-70
2023/06/03 09:00:00;;;;;;;;;17.25;17.25;;;;;18.79;57.19;100863.16;5049822;28;45540;-74
2023/06/03 09:02:27;;;;;;;;;17.75;17.75;;;;;18.84;56.96;100871.69;5054989;28;46346;-67
2023/06/03 09:04:53;;;;;;;;;14.50;14.50;;;;;18.89;56.56;100862.53;5055984;28;45536;-70
2023/06/03 09:07:20;;;;;;;;;15.50;15.50;;;;;18.97;56.73;100858.38;5054026;28;46580;-68
2023/06/03 09:09:48;;;;;;;;;14.25;14.25;;;;;19.05;56.42;100865.81;5055184;28;45501;-75
2023/06/03 09:12:14;;;;;;;;;14.50;14.50;;;;;19.15;55.65;100871.34;5038649;28;48280;-68
2023/06/03 09:14:40;;;;;;;;;17.00;17.00;;;;;19.23;55.81;100873.47;5064286;28;45373;-68
2023/06/03 09:17:06;;;;;;;;;15.00;14.50;;;;;19.28;55.63;100866.00;5062027;28;45330;-68
2023/06/03 09:19:34;;;;;;;;;13.25;13.25;;;;;19.34;54.06;100862.88;5065091;28;45456;-70
2023/06/03 09:22:01;;;;;;;;;16.00;16.00;;;;;19.47;54.41;100867.31;5059596;28;45597;-67
2023/06/03 09:24:27;;;;;;;;;12.25;12.25;;;;;19.50;53.74;100861.75;5053250;28;46614;-72
2023/06/03 09:26:53;;;;;;;;;12.25;12.25;;;;;19.66;53.39;100870.34;5055662;28;45297;-78
2023/06/03 09:29:20;;;;;;;;;19.50;19.50;;;;;19.64;53.34;100848.25;5057342;28;45381;-71
2023/06/03 09:31:47;;;;;;;;;13.50;13.50;;;;;19.82;53.85;100862.03;5056115;28;47163;-74
2023/06/03 09:34:15;;;;;;;;;16.75;15.75;;;;;19.94;52.53;100860.28;5051454;28;45358;-68
2023/06/03 09:36:45;;;;;;;;;13.25;13.25;;;;;19.96;51.59;100862.84;5054780;28;45358;-74
2023/06/03 09:39:16;;;;;;;;;13.25;13.25;;;;;20.03;51.72;100866.75;5056188;28;45519;-74
2023/06/03 09:41:41;;;;;;;;;14.25;14.25;;;;;20.03;51.12;100866.75;5054763;28;45351;-71
2023/06/03 09:44:08;;;;;;;;;17.75;16.00;;;;;20.05;51.45;100861.28;5045281;28;45377;-71
2023/06/03 09:46:34;;;;;;;;;13.00;13.00;;;;;20.19;52.07;100871.78;5053270;28;45758;-73
2023/06/03 09:49:19;;;;;;;;;14.00;14.00;;;;;20.29;52.06;100866.56;5058011;28;45538;-76
2023/06/03 09:51:46;;;;;;;;;3.25;3.25;;;;;20.36;51.58;100861.63;5046438;28;45639;-71
2023/06/03 09:54:17;;;;;;;;;19.00;19.00;;;;;20.46;50.92;100873.31;5057654;27;45461;-66
2023/06/03 09:56:47;;;;;;;;;13.50;13.50;;;;;20.54;50.94;100880.69;5053046;28;45529;-73
2023/06/03 09:59:16;;;;;;;;;12.75;12.75;;;;;20.57;50.16;100861.75;5055600;28;45645;-70
2023/06/03 10:01:45;;;;;;;;;12.25;12.25;;;;;20.60;49.56;100871.38;5054128;28;46448;-71
2023/06/03 10:04:11;;;;;;;;;13.50;12.75;;;;;20.62;48.95;100859.56;5043033;28;45528;-70
2023/06/03 10:06:38;;;;;;;;;11.75;11.75;;;;;20.70;48.90;100870.53;5048119;28;45352;-72
2023/06/03 10:09:19;;;;;;;;;14.00;14.00;;;;;20.76;49.02;100869.19;5053499;28;45490;-67
2023/06/03 10:11:50;;;;;;;;;12.75;12.75;;;;;20.84;48.57;100868.63;5069464;27;47971;-71
2023/06/03 10:14:21;;;;;;;;;12.50;12.50;;;;;20.92;48.72;100862.66;5053305;28;45410;-69
2023/06/03 10:17:07;;;;;;;;;13.00;13.00;;;;;21.05;48.22;100863.38;5055642;28;45451;-72
2023/06/03 10:19:38;;;;;;;;;15.00;15.00;;;;;21.10;47.16;100868.38;5035333;28;45371;-70
2023/06/03 10:22:05;;;;;;;;;18.25;18.25;;;;;21.14;47.41;100870.66;5053960;28;46118;-70
2023/06/03 10:24:33;;;;;;;;;13.75;13.75;;;;;21.21;47.02;100867.50;5053639;28;45396;-68
2023/06/03 10:27:01;;;;;;;;;17.25;17.00;;;;;21.23;46.18;100855.69;5050274;28;45494;-74
2023/06/03 10:29:29;;;;;;;;;32.00;30.50;;;;;21.29;45.54;100859.72;5049806;28;45491;-68
2023/06/03 10:31:57;;;;;;;;;16.50;16.50;;;;;21.32;45.54;100864.81;5039360;28;48097;-72
2023/06/03 10:34:23;;;;;;;;;25.50;25.50;;;;;21.37;46.09;100861.75;5053177;28;45448;-73
2023/06/03 10:36:55;;;;;;;;;20.50;20.50;;;;;21.42;45.77;100854.19;5052589;28;45533;-74
2023/06/03 10:39:23;;;;;;;;;17.75;17.75;;;;;21.53;45.58;100850.63;5051735;28;45370;-74
2023/06/03 10:41:52;;;;;;;;;14.00;14.00;;;;;21.58;44.71;100856.47;5048499;28;46275;-71
2023/06/03 10:44:19;;;;;;;;;12.75;12.75;;;;;21.55;44.09;100844.16;5050919;28;45627;-68
2023/06/03 10:46:59;;;;;;;;;11.75;11.75;;;;;21.58;45.07;100853.78;5052420;28;45287;-73
2023/06/03 10:49:31;;;;;;;;;13.00;13.00;;;;;21.57;44.98;100847.56;5053445;28;45427;-71
2023/06/03 10:52:12;;;;;;;;;18.75;18.75;;;;;21.60;45.91;100862.53;5053035;28;45846;-73
2023/06/03 10:54:58;;;;;;;;;12.75;12.75;;;;;21.65;45.83;100856.81;5044671;28;46626;-70
2023/06/03 10:57:32;;;;;;;;;20.00;20.00;;;;;21.63;45.78;100856.06;5049980;28;45447;-74
2023/06/03 10:59:58;;;;;;;;;29.25;28.75;;;;;21.70;45.89;100857.28;5052749;28;45473;-68
2023/06/03 11:02:25;;;;;;;;;22.25;22.25;;;;;21.71;46.24;100853.63;5053304;28;45468;-70
2023/06/03 11:05:23;;;;;;;;;15.75;15.75;;;;;21.86;45.79;100857.72;5056307;28;45528;-72
2023/06/03 11:07:48;;;;;;;;;17.25;17.00;;;;;21.92;46.08;100852.84;5049575;28;45351;-70
2023/06/03 11:10:36;;;;;;;;;14.25;14.25;;;;;21.99;44.92;100857.53;5059864;28;45472;-71
2023/06/03 11:13:05;;;;;;;;;16.50;16.50;;;;;22.03;44.90;100848.25;5052760;28;45506;-72